Midpark, Ohio
Current Conditions -  °F | °C
As of 9:51 PM on Wednesday 22 Oct 2014 (Local Time) from KCLE Reporting Station
Overcast Overcast  
Wind Chill: 50°   Ceiling: 4200
Heat Index: 50°   Visibility: 10mi
Dew Point: 44°   Wind: 12mph
Humidity: 80%   Direction: 360°N
Pressure: 30.26"   Gusts: NA
Location:  41.3776°N, 81.7863°W
Report Text: KCLE 230151Z 36010KT 10SM FEW020 OVC042 10/07 A3026 RMK AO2 SLP251 T01000067 $
Loading
Personal Weather Stations






























Interactive Weather Map
Tropical Storm Tracking
New forecast layout! Learn more

10-Day Weather Forecast

Advertisements
Track Severe Weather on mobile